sensor_id;sensor_type;location;lat;lon;timestamp;pressure;altitude;pressure_sealevel;temperature;humidity
26915;BME280;14480;52.608;13.416;2023-05-31T08:02:52;146173.75;;;8.91;49.54
26915;BME280;14480;52.608;13.416;2023-05-31T08:07:55;146029.66;;;8.33;49.00
26915;BME280;14480;52.608;13.416;2023-05-31T08:13:30;146005.88;;;8.23;49.52
26915;BME280;14480;52.608;13.416;2023-05-31T08:18:34;145796.78;;;7.38;49.96
26915;BME280;14480;52.608;13.416;2023-05-31T08:23:38;145449.03;;;5.97;51.42
26915;BME280;14480;52.608;13.416;2023-05-31T08:28:41;145579.09;;;6.50;51.98
26915;BME280;14480;52.608;13.416;2023-05-31T08:33:56;145537.78;;;6.33;51.45
26915;BME280;14480;52.608;13.416;2023-05-31T08:38:59;145516.53;;;6.24;50.32
26915;BME280;14480;52.608;13.416;2023-05-31T08:44:03;145494.06;;;6.15;48.12
26915;BME280;14480;52.608;13.416;2023-05-31T08:49:09;145422.72;;;5.86;49.47
26915;BME280;14480;52.608;13.416;2023-05-31T08:54:14;145262.78;;;5.21;50.63
26915;BME280;14480;52.608;13.416;2023-05-31T08:59:17;145386.47;;;5.71;49.62
26915;BME280;14480;52.608;13.416;2023-05-31T09:04:22;145481.53;;;6.10;48.89
26915;BME280;14480;52.608;13.416;2023-05-31T09:09:26;145439.03;;;5.93;49.19
26915;BME280;14480;52.608;13.416;2023-05-31T09:14:30;145494.06;;;6.15;47.83
26915;BME280;14480;52.608;13.416;2023-05-31T09:19:41;145466.53;;;6.04;48.59
26915;BME280;14480;52.608;13.416;2023-05-31T09:24:54;145446.53;;;5.96;49.68
26915;BME280;14480;52.608;13.416;2023-05-31T09:29:58;145522.81;;;6.27;50.52
26915;BME280;14480;52.608;13.416;2023-05-31T09:35:13;145591.59;;;6.55;47.88
26915;BME280;14480;52.608;13.416;2023-05-31T09:40:21;145624.09;;;6.68;48.35
26915;BME280;14480;52.608;13.416;2023-05-31T09:45:25;145600.31;;;6.58;47.92
26915;BME280;14480;52.608;13.416;2023-05-31T09:50:31;145620.34;;;6.66;48.81
26915;BME280;14480;52.608;13.416;2023-05-31T09:55:40;145604.06;;;6.60;50.01
26915;BME280;14480;52.608;13.416;2023-05-31T10:00:46;145685.41;;;6.93;50.29
26915;BME280;14480;52.608;13.416;2023-05-31T10:05:52;145724.22;;;7.09;48.51
26915;BME280;14480;52.608;13.416;2023-05-31T10:10:55;145645.38;;;6.77;48.22
26915;BME280;14480;52.608;13.416;2023-05-31T10:16:02;145742.94;;;7.16;47.97
26915;BME280;14480;52.608;13.416;2023-05-31T10:21:12;145919.50;;;7.88;48.60
26915;BME280;14480;52.608;13.416;2023-05-31T10:26:22;146012.16;;;8.26;45.26
26915;BME280;14480;52.608;13.416;2023-05-31T10:31:30;145811.81;;;7.44;45.57
26915;BME280;14480;52.608;13.416;2023-05-31T10:36:39;145898.19;;;7.79;45.89
26915;BME280;14480;52.608;13.416;2023-05-31T10:41:44;145881.88;;;7.73;44.47
26915;BME280;14480;52.608;13.416;2023-05-31T10:46:50;145970.78;;;8.09;45.98
26915;BME280;14480;52.608;13.416;2023-05-31T10:52:04;146009.63;;;8.25;43.72
26915;BME280;14480;52.608;13.416;2023-05-31T10:57:08;145906.94;;;7.83;44.56
26915;BME280;14480;52.608;13.416;2023-05-31T11:02:12;146019.66;;;8.29;44.38
26915;BME280;14480;52.608;13.416;2023-05-31T11:07:19;145959.53;;;8.04;43.77
26915;BME280;14480;52.608;13.416;2023-05-31T11:12:31;145997.09;;;8.19;43.62
26915;BME280;14480;52.608;13.416;2023-05-31T11:17:38;145818.06;;;7.47;43.40
26915;BME280;14480;52.608;13.416;2023-05-31T11:22:46;145818.06;;;7.47;43.89
26915;BME280;14480;52.608;13.416;2023-05-31T11:27:52;145923.22;;;7.89;43.29
26915;BME280;14480;52.608;13.416;2023-05-31T11:33:14;145798.03;;;7.39;42.69
26915;BME280;14480;52.608;13.416;2023-05-31T11:38:19;145795.53;;;7.38;43.28
26915;BME280;14480;52.608;13.416;2023-05-31T11:43:23;145775.53;;;7.29;41.87
26915;BME280;14480;52.608;13.416;2023-05-31T11:48:37;145836.84;;;7.54;42.29
26915;BME280;14480;52.608;13.416;2023-05-31T11:53:45;145761.72;;;7.24;42.87
26915;BME280;14480;52.608;13.416;2023-05-31T11:58:49;145582.84;;;6.51;41.84
26915;BME280;14480;52.608;13.416;2023-05-31T12:03:57;145712.91;;;7.04;41.53
26915;BME280;14480;52.608;13.416;2023-05-31T12:09:07;145711.66;;;7.03;41.56
26915;BME280;14480;52.608;13.416;2023-05-31T12:14:11;145784.28;;;7.33;42.61
26915;BME280;14480;52.608;13.416;2023-05-31T12:19:14;145851.84;;;7.60;41.50
26915;BME280;14480;52.608;13.416;2023-05-31T12:24:22;145870.63;;;7.68;41.57
26915;BME280;14480;52.608;13.416;2023-05-31T12:29:30;145799.28;;;7.39;41.81
26915;BME280;14480;52.608;13.416;2023-05-31T12:34:34;145923.22;;;7.89;41.75
26915;BME280;14480;52.608;13.416;2023-05-31T12:39:39;146027.16;;;8.32;41.79
26915;BME280;14480;52.608;13.416;2023-05-31T12:44:43;146072.31;;;8.50;41.62
26915;BME280;14480;52.608;13.416;2023-05-31T12:49:46;146041.00;;;8.37;41.29
26915;BME280;14480;52.608;13.416;2023-05-31T12:54:51;146002.09;;;8.22;41.59
26915;BME280;14480;52.608;13.416;2023-05-31T12:59:58;145959.53;;;8.04;41.57
26915;BME280;14480;52.608;13.416;2023-05-31T13:05:04;145911.94;;;7.85;42.55
26915;BME280;14480;52.608;13.416;2023-05-31T13:10:10;145931.97;;;7.93;41.97
26915;BME280;14480;52.608;13.416;2023-05-31T13:15:14;145994.59;;;8.18;42.94
26915;BME280;14480;52.608;13.416;2023-05-31T13:20:18;146000.84;;;8.21;43.39
26915;BME280;14480;52.608;13.416;2023-05-31T13:25:23;146044.75;;;8.39;42.10
26915;BME280;14480;52.608;13.416;2023-05-31T13:30:26;146121.19;;;8.70;43.28
26915;BME280;14480;52.608;13.416;2023-05-31T13:35:30;146151.25;;;8.82;42.60
26915;BME280;14480;52.608;13.416;2023-05-31T13:40:35;146142.44;;;8.78;42.40
26915;BME280;14480;52.608;13.416;2023-05-31T13:45:40;146162.50;;;8.87;41.59
26915;BME280;14480;52.608;13.416;2023-05-31T13:50:43;146124.94;;;8.71;40.99
26915;BME280;14480;52.608;13.416;2023-05-31T13:55:48;146256.47;;;9.25;41.21
26915;BME280;14480;52.608;13.416;2023-05-31T14:01:04;146285.31;;;9.36;41.01
26915;BME280;14480;52.608;13.416;2023-05-31T14:06:16;146320.44;;;9.51;41.05
26915;BME280;14480;52.608;13.416;2023-05-31T14:11:24;146336.72;;;9.57;41.22
26915;BME280;14480;52.608;13.416;2023-05-31T14:16:28;146364.31;;;9.69;41.72
26915;BME280;14480;52.608;13.416;2023-05-31T14:21:56;146396.91;;;9.82;41.50
26915;BME280;14480;52.608;13.416;2023-05-31T14:27:01;146336.72;;;9.57;41.91
26915;BME280;14480;52.608;13.416;2023-05-31T14:32:05;146354.28;;;9.64;42.20
26915;BME280;14480;52.608;13.416;2023-05-31T14:37:08;146368.06;;;9.70;42.16
26915;BME280;14480;52.608;13.416;2023-05-31T14:42:24;146390.63;;;9.79;42.68
26915;BME280;14480;52.608;13.416;2023-05-31T14:47:27;146409.47;;;9.87;42.05
26915;BME280;14480;52.608;13.416;2023-05-31T14:52:33;146307.88;;;9.46;41.98
26915;BME280;14480;52.608;13.416;2023-05-31T15:03:22;146364.31;;;9.69;41.57
26915;BME280;14480;52.608;13.416;2023-05-31T15:08:51;146482.19;;;10.16;42.23
26915;BME280;14480;52.608;13.416;2023-05-31T15:13:55;146470.91;;;10.12;41.06
26915;BME280;14480;52.608;13.416;2023-05-31T15:24:37;146332.97;;;9.56;41.81
26915;BME280;14480;52.608;13.416;2023-05-31T15:30:02;146366.81;;;9.70;41.93
26915;BME280;14480;52.608;13.416;2023-05-31T15:35:09;146340.47;;;9.59;42.56
26915;BME280;14480;52.608;13.416;2023-05-31T15:40:14;146302.88;;;9.44;41.86
26915;BME280;14480;52.608;13.416;2023-05-31T15:45:17;146315.41;;;9.49;42.31
26915;BME280;14480;52.608;13.416;2023-05-31T15:50:21;146301.63;;;9.43;41.99
26915;BME280;14480;52.608;13.416;2023-05-31T15:55:26;146277.81;;;9.33;42.12
26915;BME280;14480;52.608;13.416;2023-05-31T16:06:18;146152.50;;;8.83;41.96
26915;BME280;14480;52.608;13.416;2023-05-31T16:11:23;146106.13;;;8.64;42.77
26915;BME280;14480;52.608;13.416;2023-05-31T16:16:27;146079.81;;;8.53;42.60
26915;BME280;14480;52.608;13.416;2023-05-31T16:21:33;145969.53;;;8.08;43.51
26915;BME280;14480;52.608;13.416;2023-05-31T16:26:38;145939.47;;;7.96;43.96
26915;BME280;14480;52.608;13.416;2023-05-31T16:31:42;145931.97;;;7.93;43.65
26915;BME280;14480;52.608;13.416;2023-05-31T16:36:45;145954.53;;;8.02;44.44
26915;BME280;14480;52.608;13.416;2023-05-31T16:42:24;145936.97;;;7.95;43.36
26915;BME280;14480;52.608;13.416;2023-05-31T16:47:28;145916.94;;;7.87;44.29
26915;BME280;14480;52.608;13.416;2023-05-31T16:52:35;145900.69;;;7.80;44.02
26915;BME280;14480;52.608;13.416;2023-05-31T17:04:38;145871.88;;;7.69;43.61
26915;BME280;14480;52.608;13.416;2023-05-31T17:09:41;145813.06;;;7.45;43.54
26915;BME280;14480;52.608;13.416;2023-05-31T17:14:45;145778.03;;;7.30;44.78
26915;BME280;14480;52.608;13.416;2023-05-31T17:19:50;145789.28;;;7.35;44.12
26915;BME280;14480;52.608;13.416;2023-05-31T17:24:53;145756.75;;;7.22;44.42
26915;BME280;14480;52.608;13.416;2023-05-31T17:29:57;145725.47;;;7.09;44.70
26915;BME280;14480;52.608;13.416;2023-05-31T17:35:01;145719.22;;;7.07;45.24
26915;BME280;14480;52.608;13.416;2023-05-31T17:40:07;145676.66;;;6.89;44.86
26915;BME280;14480;52.608;13.416;2023-05-31T17:45:11;145629.09;;;6.70;45.40
26915;BME280;14480;52.608;13.416;2023-05-31T17:50:16;145562.81;;;6.43;46.49
26915;BME280;14480;52.608;13.416;2023-05-31T17:55:20;145486.53;;;6.12;47.33
26915;BME280;14480;52.608;13.416;2023-05-31T18:00:24;145441.53;;;5.94;48.02
26915;BME280;14480;52.608;13.416;2023-05-31T18:05:29;145395.22;;;5.75;48.34
26915;BME280;14480;52.608;13.416;2023-05-31T18:10:32;145355.25;;;5.59;49.25
26915;BME280;14480;52.608;13.416;2023-05-31T18:15:45;145317.72;;;5.43;50.10
26915;BME280;14480;52.608;13.416;2023-05-31T18:21:04;145286.47;;;5.31;50.47
26915;BME280;14480;52.608;13.416;2023-05-31T18:26:08;145247.75;;;5.15;51.77
26915;BME280;14480;52.608;13.416;2023-05-31T18:31:11;145201.50;;;4.96;52.20
26915;BME280;14480;52.608;13.416;2023-05-31T18:36:16;145154.09;;;4.77;53.48
26915;BME280;14480;52.608;13.416;2023-05-31T18:41:20;145104.13;;;4.56;54.43
26915;BME280;14480;52.608;13.416;2023-05-31T18:46:24;145049.16;;;4.34;55.33
26915;BME280;14480;52.608;13.416;2023-05-31T18:51:33;144990.47;;;4.10;55.54
26915;BME280;14480;52.608;13.416;2023-05-31T18:56:38;144923.09;;;3.83;57.83
26915;BME280;14480;52.608;13.416;2023-05-31T19:01:42;144879.41;;;3.65;58.51
26915;BME280;14480;52.608;13.416;2023-05-31T19:06:56;144830.72;;;3.45;58.80
26915;BME280;14480;52.608;13.416;2023-05-31T19:12:00;144773.34;;;3.21;59.42
26915;BME280;14480;52.608;13.416;2023-05-31T19:17:04;144729.69;;;3.04;60.10
26915;BME280;14480;52.608;13.416;2023-05-31T19:22:09;144661.06;;;2.76;60.78
26915;BME280;14480;52.608;13.416;2023-05-31T19:27:13;144622.44;;;2.60;61.52
26915;BME280;14480;52.608;13.416;2023-05-31T19:32:17;144590.03;;;2.47;60.81
26915;BME280;14480;52.608;13.416;2023-05-31T19:37:22;144565.09;;;2.37;60.95
26915;BME280;14480;52.608;13.416;2023-05-31T19:42:25;144530.19;;;2.22;61.01
26915;BME280;14480;52.608;13.416;2023-05-31T19:47:30;144499.03;;;2.10;61.45
26915;BME280;14480;52.608;13.416;2023-05-31T19:52:35;144457.91;;;1.93;62.22
26915;BME280;14480;52.608;13.416;2023-05-31T19:57:38;144414.31;;;1.75;62.08
26915;BME280;14480;52.608;13.416;2023-05-31T20:02:42;144389.38;;;1.65;62.47
26915;BME280;14480;52.608;13.416;2023-05-31T20:07:50;144363.22;;;1.54;62.62
26915;BME280;14480;52.608;13.416;2023-05-31T20:12:55;144347.00;;;1.48;62.67
26915;BME280;14480;52.608;13.416;2023-05-31T20:17:59;144320.84;;;1.37;63.12
26915;BME280;14480;52.608;13.416;2023-05-31T20:23:04;144298.47;;;1.28;64.14
26915;BME280;14480;52.608;13.416;2023-05-31T20:28:08;144276.03;;;1.19;64.03
26915;BME280;14480;52.608;13.416;2023-05-31T20:33:12;144266.03;;;1.14;64.24
26915;BME280;14480;52.608;13.416;2023-05-31T20:38:17;144243.66;;;1.05;65.38
26915;BME280;14480;52.608;13.416;2023-05-31T20:43:20;144191.34;;;0.84;71.09
26915;BME280;14480;52.608;13.416;2023-05-31T20:48:24;144157.75;;;0.70;71.41
26915;BME280;14480;52.608;13.416;2023-05-31T20:53:34;144142.78;;;0.64;71.13
26915;BME280;14480;52.608;13.416;2023-05-31T20:58:37;144141.56;;;0.64;70.90
26915;BME280;14480;52.608;13.416;2023-05-31T21:03:42;144144.03;;;0.65;70.18
26915;BME280;14480;52.608;13.416;2023-05-31T21:08:50;144139.06;;;0.63;70.85
